WetterOnline ( https://www.wetteronline.de )

Wetter aktuell Neukirchen/Erzgeb.

Aktuelles Wetter: Chemnitz (420m)

6-stündlich | Neueste Meldungen
Ortszeit Temperatur Wetter
Do, 23.05. 14:00 15.6° C leicht bewölkt
Do, 23.05. 8:00 9.2° C bewölkt
Do, 23.05. 2:00 8.6° C bedeckt
Mi, 22.05. 20:00 10.2° C leichter Regen
Mi, 22.05. 14:00 11.4° C bedeckt
Mi, 22.05. 8:00 10.7° C Sprühregen
Mi, 22.05. 2:00 12.2° C bewölkt
Di, 21.05. 20:00 17.1° C wolkig
Ortszeit Temperatur Wetter
Do, 23.05. 14:00 15.6° C leicht bewölkt
Do, 23.05. 13:30 15.4° C wolkig
Do, 23.05. 13:20 15.4° C wolkig
Do, 23.05. 13:10 15.0° C leicht bewölkt
Do, 23.05. 13:00 15.0° C leicht bewölkt
Do, 23.05. 12:50 15.0° C wolkig
Do, 23.05. 12:30 14.7° C wolkig
Do, 23.05. 12:00 14.5° C wolkig
Do, 23.05. 11:30 13.7° C wolkig
Do, 23.05. 11:00 13.1° C wolkig
Ortszeit Relative Feuchte Sichtweite
Do, 23.05. 14:00 57% 35 km
Do, 23.05. 8:00 81% 16 km
Do, 23.05. 2:00 87% 15 km
Mi, 22.05. 20:00 88% 8 km
Mi, 22.05. 14:00 88% 8 km
Mi, 22.05. 8:00 97% 2.2 km
Mi, 22.05. 2:00 94% 2.1 km
Di, 21.05. 20:00 70% 27 km
Ortszeit Relative Feuchte Sichtweite
Do, 23.05. 14:00 57% 35 km
Do, 23.05. 13:30 52% 27 km
Do, 23.05. 13:20 52% -
Do, 23.05. 13:10 50% -
Do, 23.05. 13:00 52% 29 km
Do, 23.05. 12:50 52% -
Do, 23.05. 12:30 53% 27 km
Do, 23.05. 12:00 54% 25 km
Do, 23.05. 11:30 60% 23 km
Do, 23.05. 11:00 66% 20 km
Ortszeit Niederschlagsmenge Niederschlagsart
Do, 23.05. 14:00 0.0 l/m2 in 6 Std. -
Do, 23.05. 8:00 0.1 l/m2 in 12 Std. -
Do, 23.05. 2:00 0.1 l/m2 in 6 Std. Regen
Mi, 22.05. 20:00 0.6 l/m2 in 12 Std. Regen
Mi, 22.05. 14:00 0.6 l/m2 in 6 Std. Regen
Mi, 22.05. 8:00 2 l/m2 in 12 Std. Regen
Mi, 22.05. 2:00 0.1 l/m2 in 6 Std. Regen
Di, 21.05. 20:00 0.0 l/m2 in 12 Std. -
Ortszeit Niederschlagsmenge Niederschlagsart
Do, 23.05. 14:00 0.0 l/m2 in 1 Std. -
Do, 23.05. 13:30 0.0 l/m2 in 1 Std. -
Do, 23.05. 13:20 keine Meldung -
Do, 23.05. 13:10 keine Meldung -
Do, 23.05. 13:00 0.0 l/m2 in 1 Std. -
Do, 23.05. 12:50 keine Meldung -
Do, 23.05. 12:30 0.0 l/m2 in 1 Std. -
Do, 23.05. 12:00 0.0 l/m2 in 1 Std. -
Do, 23.05. 11:30 0.0 l/m2 in 1 Std. -
Do, 23.05. 11:00 0.0 l/m2 in 1 Std. -
Ortszeit Stärke Spitze Richtung
km/h Bft. km/h Grad Sektor
Do, 23.05. 14:00 11 2 29 340° N
Do, 23.05. 8:00 7 2 18 280° W
Do, 23.05. 2:00 13 3 24 270° W
Mi, 22.05. 20:00 17 3 35 300° NW
Mi, 22.05. 14:00 20 4 37 310° NW
Mi, 22.05. 8:00 13 3 31 320° NW
Mi, 22.05. 2:00 20 4 39 300° NW
Di, 21.05. 20:00 19 3 28 330° NW
Ortszeit Stärke Spitze Richtung
km/h Bft. km/h Grad Sektor
Do, 23.05. 14:00 11 2 29 340° N
Do, 23.05. 13:30 17 3 28 290° W
Do, 23.05. 13:20 17 3 - 290° W
Do, 23.05. 13:10 11 2 - 310° NW
Do, 23.05. 13:00 9 2 26 320° NW
Do, 23.05. 12:50 9 2 - 320° NW
Do, 23.05. 12:30 18 3 25 270° W
Do, 23.05. 12:00 13 3 24 320° NW
Do, 23.05. 11:30 11 2 24 280° W
Do, 23.05. 11:00 15 3 26 310° NW
Ortszeit Untergrenze Bedeckung Gattung
total tief tief mittel hoch
Do, 23.05. 14:00 1290 m 3/8 3/8 - - -
Do, 23.05. 8:00 1020 m 8/8 6/8 - - -
Do, 23.05. 2:00 4200 m 8/8 8/8 - - -
Mi, 22.05. 20:00 330 m 8/8 8/8 - - -
Mi, 22.05. 14:00 330 m 8/8 8/8 - - -
Mi, 22.05. 8:00 60 m 8/8 8/8 - - -
Mi, 22.05. 2:00 150 m 7/8 7/8 - - -
Di, 21.05. 20:00 1110 m 8/8 2/8 - - -
Ortszeit Bedeckungsgrad in Achtel und Wolkenuntergrenze
Do, 23.05. 14:00 3(1290m) 3(8700m)
Do, 23.05. 13:30 2(1260m) 6(9000m) 6(10500m)
Do, 23.05. 13:20 2(1260m) 6(9000m) 6(10500m)
Do, 23.05. 13:10 1(1200m) 6(8400m) 6(9000m)
Do, 23.05. 13:00 1(1200m) 8(9000m) 8(9000m)
Do, 23.05. 12:50 1(1200m) 8(9000m) 8(9000m)
Do, 23.05. 12:30 2(1080m) 6(9000m) 6(10500m)
Do, 23.05. 12:00 2(960m) 4(1140m) 5(10500m)
Do, 23.05. 11:30 4(930m) 7(9000m) 7(9000m)
Do, 23.05. 11:00 2(780m) 5(9000m) 6(9000m)
Ortszeit Luftdruck NN (hPa) Tendenz (hPa in 3 Std.)
Do, 23.05. 14:00 1018 - 0,6
Do, 23.05. 8:00 1020 + 0,4
Do, 23.05. 2:00 1020 + 0,6
Mi, 22.05. 20:00 1018 + 1,1
Mi, 22.05. 14:00 1015 + 1,3
Mi, 22.05. 8:00 1013 + 1,3
Mi, 22.05. 2:00 1011 + 0,5
Di, 21.05. 20:00 1007 + 1,0
Ortszeit Luftdruck NN (hPa) Tendenz (hPa in 3 Std.)
Do, 23.05. 14:00 1018 - 0,6
Do, 23.05. 13:30 1019 - 0,4
Do, 23.05. 13:20 1019 keine Meldung
Do, 23.05. 13:10 1019 keine Meldung
Do, 23.05. 13:00 1019 - 0,4
Do, 23.05. 12:50 1019 keine Meldung
Do, 23.05. 12:30 1019 + 0,1
Do, 23.05. 12:00 1019 + 0,1
Do, 23.05. 11:30 1019 + 0,2
Do, 23.05. 11:00 1020 + 0,2
Ortszeit Schneehöhe (cm)
Do, 23.05. 14:00 -
Do, 23.05. 8:00 -
Do, 23.05. 2:00 -
Mi, 22.05. 20:00 -
Mi, 22.05. 14:00 -
Mi, 22.05. 8:00 -
Mi, 22.05. 2:00 -
Di, 21.05. 20:00 -
Ortszeit Schneehöhe (cm)
Do, 23.05. 14:00 -
Do, 23.05. 13:30 -
Do, 23.05. 13:20 -
Do, 23.05. 13:10 -
Do, 23.05. 13:00 -
Do, 23.05. 12:50 -
Do, 23.05. 12:30 -
Do, 23.05. 12:00 -
Do, 23.05. 11:30 -
Do, 23.05. 11:00 -
Link zu dieser Seite / Seite empfehlen

Das Wetter in ...